Time;durP1;ratioP1;P1;durP2;ratioP2;P2;SDS_P1;SDS_P2;PMS_P1;PMS_P2;Temp;Humidity;BMP_temperature;BMP_pressure;BME280_temperature;BME280_humidity;BME280_pressure;Samples;Min_cycle;Max_cycle;Signal;HPM_P1;HPM_P2
2023/01/30 00:01:30;;;;;;;17.88;10.63;;;5.20;99.90;;;;;;7409705;19;19921;-71
2023/01/30 00:04:00;;;;;;;20.58;9.70;;;5.10;99.90;;;;;;7409678;19;19934;-72
2023/01/30 00:06:31;;;;;;;18.15;8.93;;;6.00;99.90;;;;;;7411154;19;20233;-72
2023/01/30 00:09:00;;;;;;;13.73;8.60;;;5.00;99.90;;;;;;7408354;19;19926;-72
2023/01/30 00:11:32;;;;;;;17.95;8.57;;;5.60;99.90;;;;;;7407969;19;19929;-71
2023/01/30 00:14:01;;;;;;;13.38;8.10;;;5.10;99.90;;;;;;7409242;19;19922;-72
2023/01/30 00:16:31;;;;;;;18.27;8.07;;;6.10;99.90;;;;;;7408624;19;19927;-72
2023/01/30 00:19:00;;;;;;;16.27;8.15;;;5.30;99.90;;;;;;7411050;19;19929;-72
2023/01/30 00:21:31;;;;;;;19.35;8.02;;;6.20;99.90;;;;;;7409494;19;20336;-70
2023/01/30 00:24:00;;;;;;;18.13;7.80;;;5.30;99.90;;;;;;7410912;19;20307;-71
2023/01/30 00:26:29;;;;;;;17.80;8.88;;;6.50;99.90;;;;;;7408601;19;19923;-72
2023/01/30 00:28:58;;;;;;;18.50;8.40;;;5.40;99.90;;;;;;7408267;19;19929;-72
2023/01/30 00:31:27;;;;;;;17.90;8.18;;;5.30;99.90;;;;;;7408075;19;19918;-72
2023/01/30 00:33:56;;;;;;;19.75;8.18;;;5.30;99.90;;;;;;7409512;19;19919;-72
2023/01/30 00:36:25;;;;;;;22.60;9.05;;;6.20;99.90;;;;;;7407930;19;20336;-72
2023/01/30 00:38:58;;;;;;;17.83;7.75;;;5.30;99.90;;;;;;7409829;19;19924;-71
2023/01/30 00:47:04;;;;;;;13.25;7.13;;;5.30;99.90;;;;;;7409269;19;19942;-72
2023/01/30 00:47:10;;;;;;;15.38;7.78;;;5.30;99.90;;;;;;7408746;19;19937;-71
2023/01/30 00:49:41;;;;;;;13.15;5.85;;;5.30;99.90;;;;;;7407330;19;19918;-70
2023/01/30 00:52:09;;;;;;;15.45;7.68;;;5.60;99.90;;;;;;7406868;19;20249;-72
2023/01/30 00:54:41;;;;;;;12.70;6.15;;;5.50;99.90;;;;;;7406932;19;19918;-72
2023/01/30 00:57:10;;;;;;;18.02;6.22;;;6.00;99.90;;;;;;7408898;19;20346;-72
2023/01/30 00:59:39;;;;;;;11.50;5.85;;;5.60;99.90;;;;;;7409401;19;19922;-71
2023/01/30 01:02:07;;;;;;;10.20;6.20;;;5.60;99.90;;;;;;7407612;19;19937;-72
2023/01/30 01:04:42;;;;;;;10.90;5.43;;;6.20;99.90;;;;;;7409386;19;19918;-72
2023/01/30 01:07:11;;;;;;;15.18;5.75;;;5.60;99.90;;;;;;7404722;19;19956;-72
2023/01/30 01:09:43;;;;;;;10.70;5.40;;;5.50;99.90;;;;;;7407302;19;20367;-72
2023/01/30 01:12:11;;;;;;;11.23;4.95;;;6.30;99.90;;;;;;7404823;19;20479;-72
2023/01/30 01:14:40;;;;;;;8.20;4.35;;;5.50;99.90;;;;;;7405844;19;19919;-72
2023/01/30 01:17:10;;;;;;;9.32;4.88;;;5.60;99.90;;;;;;7408564;19;19939;-72
2023/01/30 01:19:39;;;;;;;8.35;4.82;;;6.60;99.90;;;;;;7407178;19;19926;-72
2023/01/30 01:22:08;;;;;;;11.77;4.22;;;5.60;99.90;;;;;;7408739;19;20273;-72
2023/01/30 01:24:36;;;;;;;8.32;3.97;;;5.60;99.90;;;;;;7407238;19;20391;-72
2023/01/30 01:27:11;;;;;;;;;;;6.50;99.90;;;;;;7409123;19;20324;-72
2023/01/30 01:29:40;;;;;;;10.40;5.18;;;5.50;99.90;;;;;;7406936;19;19929;-72
2023/01/30 01:32:09;;;;;;;12.05;4.68;;;5.50;99.90;;;;;;7405588;19;19945;-72
2023/01/30 01:34:38;;;;;;;10.60;4.55;;;5.40;99.90;;;;;;7408352;19;19925;-72
2023/01/30 01:37:06;;;;;;;7.93;4.57;;;6.10;99.90;;;;;;7406422;19;19934;-72
2023/01/30 01:42:20;;;;;;;7.82;4.30;;;5.30;99.90;;;;;;7405274;19;20297;-72
2023/01/30 01:45:00;;;;;;;;;;;5.40;99.90;;;;;;7408119;19;19929;-72
2023/01/30 01:47:29;;;;;;;8.57;3.65;;;5.30;99.90;;;;;;7404689;19;19922;-72
2023/01/30 01:49:58;;;;;;;5.35;3.17;;;5.40;99.90;;;;;;7408457;19;19919;-72
2023/01/30 01:52:27;;;;;;;7.43;3.47;;;5.30;99.90;;;;;;7406158;19;20249;-72
2023/01/30 01:55:01;;;;;;;9.15;3.67;;;6.30;99.90;;;;;;7406150;19;19918;-72
2023/01/30 01:57:36;;;;;;;7.60;3.75;;;5.80;99.90;;;;;;7405555;19;19930;-72
2023/01/30 02:00:11;;;;;;;5.00;2.88;;;5.40;99.90;;;;;;7406247;19;19939;-73
2023/01/30 02:02:41;;;;;;;7.35;2.20;;;5.30;99.90;;;;;;7405604;19;20257;-72
2023/01/30 02:05:11;;;;;;;7.45;2.67;;;5.40;99.90;;;;;;7405964;19;20554;-72
2023/01/30 02:07:43;;;;;;;4.93;2.47;;;5.30;99.90;;;;;;7405814;19;19918;-72
2023/01/30 02:10:18;;;;;;;5.40;1.83;;;6.20;99.90;;;;;;7405468;19;19970;-73
2023/01/30 02:12:52;;;;;;;2.92;1.90;;;5.60;99.90;;;;;;7405426;19;19921;-72
2023/01/30 02:15:22;;;;;;;3.67;1.63;;;5.40;99.90;;;;;;7405983;19;19926;-72
2023/01/30 02:17:51;;;;;;;4.78;1.80;;;5.40;99.90;;;;;;7406079;19;19925;-72
2023/01/30 02:20:30;;;;;;;3.25;1.67;;;5.30;99.90;;;;;;7405434;19;20010;-73
2023/01/30 02:23:32;;;;;;;2.90;1.90;;;5.40;99.90;;;;;;7406813;19;20275;-72
2023/01/30 02:26:29;;;;;;;2.45;1.50;;;5.40;99.90;;;;;;7401252;19;19925;-71
2023/01/30 02:29:36;;;;;;;7.72;1.80;;;5.40;99.90;;;;;;7404717;19;19950;-72
2023/01/30 02:32:12;;;;;;;3.47;1.55;;;5.50;99.90;;;;;;7403432;19;19919;-72
2023/01/30 02:34:49;;;;;;;5.32;1.83;;;5.60;99.90;;;;;;7405543;19;19915;-72
2023/01/30 02:37:30;;;;;;;6.28;1.90;;;5.60;99.90;;;;;;7404263;19;20304;-72
2023/01/30 02:40:17;;;;;;;3.70;1.70;;;5.50;99.90;;;;;;7405527;19;19915;-72
2023/01/30 02:42:53;;;;;;;6.85;1.67;;;5.50;99.90;;;;;;7406602;19;19927;-72
2023/01/30 02:45:30;;;;;;;6.75;1.75;;;5.50;99.90;;;;;;7405122;19;19919;-72
2023/01/30 02:48:05;;;;;;;6.00;2.83;;;5.70;99.90;;;;;;7405891;19;19930;-72
2023/01/30 02:50:38;;;;;;;9.70;2.40;;;5.60;99.90;;;;;;7404373;19;20280;-72
2023/01/30 02:53:08;;;;;;;5.57;2.53;;;5.80;99.90;;;;;;7403332;19;19937;-72
2023/01/30 02:55:37;;;;;;;8.57;3.03;;;5.80;99.90;;;;;;7401799;19;19915;-72
2023/01/30 02:58:06;;;;;;;13.07;2.95;;;5.60;99.90;;;;;;7406629;19;19922;-72
2023/01/30 03:01:03;;;;;;;10.73;2.92;;;6.20;99.90;;;;;;7403995;19;20363;-72
2023/01/30 03:03:50;;;;;;;7.25;3.38;;;5.70;99.90;;;;;;7402858;19;20344;-72
2023/01/30 03:06:39;;;;;;;10.80;2.90;;;5.80;99.90;;;;;;7405049;19;19918;-72
2023/01/30 03:09:17;;;;;;;9.73;3.28;;;6.70;99.90;;;;;;7406166;19;20285;-72
2023/01/30 03:11:51;;;;;;;4.97;1.80;;;5.90;99.90;;;;;;7404014;19;19914;-72
2023/01/30 03:14:27;;;;;;;11.15;2.50;;;5.90;99.90;;;;;;7401264;19;19926;-72
2023/01/30 03:17:00;;;;;;;8.02;2.58;;;5.80;99.90;;;;;;7403661;19;19926;-72
2023/01/30 03:19:33;;;;;;;10.02;2.33;;;6.00;99.90;;;;;;7402807;19;19919;-72
2023/01/30 03:22:02;;;;;;;4.45;1.98;;;5.90;99.90;;;;;;7403896;19;20340;-72
2023/01/30 03:24:31;;;;;;;14.10;2.67;;;5.90;99.90;;;;;;7404267;19;19926;-71
2023/01/30 03:27:05;;;;;;;9.75;2.42;;;6.00;99.90;;;;;;7402066;19;19929;-72
2023/01/30 03:29:34;;;;;;;11.48;2.55;;;6.10;99.90;;;;;;7405501;19;19922;-72
2023/01/30 03:32:03;;;;;;;8.23;1.90;;;6.00;99.90;;;;;;7409034;19;19930;-71
2023/01/30 03:34:37;;;;;;;8.70;2.38;;;6.00;99.90;;;;;;7411392;19;19923;-72
2023/01/30 03:37:07;;;;;;;8.18;1.92;;;6.10;99.90;;;;;;7410454;19;19914;-72
2023/01/30 03:39:36;;;;;;;13.75;2.65;;;6.20;99.90;;;;;;7411153;19;19922;-71
2023/01/30 03:42:05;;;;;;;7.70;1.90;;;6.20;99.90;;;;;;7409626;19;19922;-71
2023/01/30 03:44:34;;;;;;;8.13;2.15;;;6.10;99.90;;;;;;7408528;19;19918;-72
2023/01/30 03:47:03;;;;;;;6.47;1.60;;;6.10;99.90;;;;;;7409572;19;19922;-72
2023/01/30 03:49:32;;;;;;;6.57;1.95;;;6.20;99.90;;;;;;7410151;19;19925;-72
2023/01/30 03:52:03;;;;;;;10.00;1.90;;;6.20;99.90;;;;;;7409251;19;20247;-72
2023/01/30 03:54:32;;;;;;;6.20;2.20;;;7.10;99.90;;;;;;7409989;19;19927;-72
2023/01/30 03:57:01;;;;;;;10.90;2.05;;;6.00;99.90;;;;;;7411350;19;19932;-71
2023/01/30 03:59:30;;;;;;;6.13;2.30;;;6.30;99.90;;;;;;7411606;19;20300;-72
2023/01/30 04:01:59;;;;;;;7.45;1.63;;;6.10;99.90;;;;;;7411421;19;19919;-72
2023/01/30 04:04:28;;;;;;;12.15;2.17;;;6.00;99.90;;;;;;7411357;19;20028;-73
2023/01/30 04:06:57;;;;;;;15.43;1.75;;;6.10;99.90;;;;;;7411002;19;19934;-72
2023/01/30 04:09:28;;;;;;;11.05;2.30;;;7.10;99.90;;;;;;7408921;19;19922;-72
2023/01/30 04:11:57;;;;;;;8.80;1.95;;;5.90;99.90;;;;;;7409539;19;19922;-72
2023/01/30 04:14:26;;;;;;;11.63;2.78;;;6.20;99.90;;;;;;7406707;19;19919;-72
2023/01/30 04:16:55;;;;;;;10.73;1.92;;;5.80;99.90;;;;;;7409853;19;19927;-72
2023/01/30 04:19:24;;;;;;;11.15;1.85;;;5.90;99.90;;;;;;7409523;19;19915;-72
2023/01/30 04:21:53;;;;;;;14.35;2.08;;;5.70;99.90;;;;;;7407494;19;19933;-71
2023/01/30 04:24:22;;;;;;;11.00;2.85;;;5.70;99.90;;;;;;7409291;19;19922;-71
2023/01/30 04:26:54;;;;;;;15.75;2.03;;;5.60;99.90;;;;;;7410049;19;20272;-71
2023/01/30 04:29:23;;;;;;;14.15;3.00;;;5.70;99.90;;;;;;7409299;19;19942;-72
2023/01/30 04:31:51;;;;;;;14.90;2.70;;;5.60;99.90;;;;;;7408268;19;20253;-71
2023/01/30 04:34:20;;;;;;;16.27;3.22;;;6.30;99.90;;;;;;7409918;19;19925;-71
2023/01/30 04:36:49;;;;;;;17.20;2.45;;;5.60;99.90;;;;;;7408248;19;20272;-71
2023/01/30 04:39:18;;;;;;;20.13;2.55;;;5.90;99.90;;;;;;7406529;19;19922;-72
2023/01/30 04:41:47;;;;;;;17.55;3.17;;;5.50;99.90;;;;;;7405343;19;19922;-72
2023/01/30 04:44:18;;;;;;;11.18;1.63;;;5.70;99.90;;;;;;7407080;19;19922;-72
2023/01/30 04:46:47;;;;;;;9.52;1.83;;;6.10;99.90;;;;;;7409758;19;19926;-72
2023/01/30 04:49:16;;;;;;;12.98;2.40;;;5.40;99.90;;;;;;7407769;19;19926;-72
2023/01/30 04:51:45;;;;;;;10.52;2.17;;;6.30;99.90;;;;;;7409183;19;19922;-72
2023/01/30 04:54:14;;;;;;;13.40;2.60;;;5.80;99.90;;;;;;7406062;19;19918;-72
2023/01/30 04:56:43;;;;;;;7.55;1.35;;;5.40;99.90;;;;;;7409119;19;20421;-72
2023/01/30 04:59:12;;;;;;;9.95;2.10;;;5.30;99.90;;;;;;7407958;19;19919;-72
2023/01/30 05:01:44;;;;;;;15.80;3.17;;;5.80;99.90;;;;;;7408812;19;19927;-72
2023/01/30 05:04:12;;;;;;;17.33;2.55;;;6.20;99.90;;;;;;7407117;19;19926;-72
2023/01/30 05:06:41;;;;;;;11.65;2.20;;;5.50;99.90;;;;;;7408334;19;19919;-72
2023/01/30 05:09:10;;;;;;;11.05;2.00;;;5.80;99.90;;;;;;7404989;19;19925;-72
2023/01/30 05:11:40;;;;;;;8.38;2.42;;;5.40;99.90;;;;;;7408543;19;19919;-71
2023/01/30 05:14:08;;;;;;;12.82;2.50;;;5.60;99.90;;;;;;7403853;19;19914;-71
2023/01/30 05:16:37;;;;;;;9.95;2.58;;;5.30;99.90;;;;;;7408233;19;19918;-71
2023/01/30 05:19:09;;;;;;;9.88;2.47;;;5.40;99.90;;;;;;7406242;19;19918;-71
2023/01/30 05:21:37;;;;;;;13.88;2.50;;;5.60;99.90;;;;;;7406988;19;19933;-71
2023/01/30 05:24:08;;;;;;;7.68;1.52;;;5.20;99.90;;;;;;7408155;19;19926;-71
2023/01/30 05:26:37;;;;;;;10.18;1.67;;;5.30;99.90;;;;;;7408408;19;19922;-71
2023/01/30 05:29:06;;;;;;;18.10;2.78;;;6.00;99.90;;;;;;7405702;19;19938;-72
2023/01/30 05:31:37;;;;;;;16.50;2.25;;;5.30;99.90;;;;;;7407503;19;19918;-71
2023/01/30 05:34:08;;;;;;;16.02;2.63;;;5.20;99.90;;;;;;7404550;19;19926;-71
2023/01/30 05:36:37;;;;;;;16.35;2.00;;;5.40;99.90;;;;;;7406846;19;19919;-71
2023/01/30 05:39:06;;;;;;;10.98;2.03;;;6.10;99.90;;;;;;7407572;19;19929;-71
2023/01/30 05:41:35;;;;;;;11.93;2.42;;;5.90;99.90;;;;;;7405160;19;19947;-72
2023/01/30 05:44:04;;;;;;;5.55;1.27;;;5.20;99.90;;;;;;7406672;19;20352;-71
2023/01/30 05:46:33;;;;;;;11.90;2.13;;;6.10;99.90;;;;;;7406663;19;20321;-72
2023/01/30 05:49:03;;;;;;;10.75;1.55;;;5.20;99.90;;;;;;7407448;19;19922;-71
2023/01/30 05:51:34;;;;;;;13.07;2.75;;;5.50;99.90;;;;;;7406688;19;19950;-72
2023/01/30 05:54:03;;;;;;;16.02;1.83;;;5.30;99.90;;;;;;7403403;19;19986;-72
2023/01/30 05:56:32;;;;;;;11.63;1.90;;;5.80;99.90;;;;;;7405625;19;20309;-71
2023/01/30 05:59:03;;;;;;;9.05;1.67;;;5.20;99.90;;;;;;7406653;19;19910;-71
2023/01/30 06:01:32;;;;;;;12.80;2.13;;;5.20;99.90;;;;;;7404222;19;19926;-71
2023/01/30 06:04:01;;;;;;;13.80;2.28;;;6.00;99.90;;;;;;7405734;19;19986;-70
2023/01/30 06:06:30;;;;;;;7.35;1.70;;;5.30;99.90;;;;;;7406829;19;19919;-72
2023/01/30 06:09:02;;;;;;;13.77;1.95;;;5.20;99.90;;;;;;7406347;19;19918;-72
2023/01/30 06:11:31;;;;;;;14.25;2.15;;;5.50;99.90;;;;;;7404102;19;19917;-71
2023/01/30 06:13:59;;;;;;;22.83;3.22;;;5.70;99.90;;;;;;7403902;19;19937;-72
2023/01/30 06:16:28;;;;;;;13.20;2.50;;;5.30;99.90;;;;;;7407665;19;19922;-72
2023/01/30 06:18:57;;;;;;;10.23;2.65;;;5.40;99.90;;;;;;7405663;19;19935;-71
2023/01/30 06:21:26;;;;;;;13.88;1.58;;;5.60;99.90;;;;;;7406776;19;20217;-72
2023/01/30 06:23:55;;;;;;;14.27;1.90;;;5.60;99.90;;;;;;7404640;19;19922;-72
2023/01/30 06:26:27;;;;;;;14.02;2.35;;;5.80;99.90;;;;;;7405921;19;19922;-71
2023/01/30 06:28:56;;;;;;;17.42;2.83;;;5.10;99.90;;;;;;7405459;19;19923;-72
2023/01/30 06:31:25;;;;;;;17.88;2.15;;;5.20;99.90;;;;;;7406253;19;19922;-71
2023/01/30 06:33:54;;;;;;;16.17;2.85;;;5.10;99.90;;;;;;7403236;19;19933;-72
2023/01/30 06:36:23;;;;;;;18.63;2.22;;;6.30;99.90;;;;;;7405467;19;19936;-72
2023/01/30 06:38:52;;;;;;;16.20;2.03;;;5.90;99.90;;;;;;7405621;19;19921;-71
2023/01/30 06:41:21;;;;;;;17.60;2.40;;;5.20;99.90;;;;;;7404924;19;19926;-72
2023/01/30 06:43:52;;;;;;;12.63;3.00;;;5.80;99.90;;;;;;7404332;19;19925;-70
2023/01/30 06:46:21;;;;;;;14.85;2.65;;;5.10;99.90;;;;;;7405534;19;19929;-71
2023/01/30 06:48:50;;;;;;;15.63;2.10;;;5.10;99.90;;;;;;7403898;19;19926;-70
2023/01/30 06:51:19;;;;;;;18.88;2.05;;;5.10;99.90;;;;;;7405452;19;20275;-71
2023/01/30 06:53:48;;;;;;;14.27;2.20;;;5.10;99.90;;;;;;7403828;19;19922;-71
2023/01/30 06:56:17;;;;;;;13.32;3.35;;;5.60;99.90;;;;;;7404462;19;20325;-71
2023/01/30 06:58:46;;;;;;;12.02;2.22;;;5.20;99.90;;;;;;7406494;19;19922;-72
2023/01/30 07:01:18;;;;;;;9.57;1.92;;;5.10;99.90;;;;;;7402231;19;20350;-72
2023/01/30 07:03:47;;;;;;;13.63;2.67;;;5.20;99.90;;;;;;7403796;19;19915;-71
2023/01/30 07:06:16;;;;;;;13.52;2.55;;;5.50;99.90;;;;;;7409673;19;19922;-72
2023/01/30 07:08:45;;;;;;;14.23;2.25;;;5.90;99.90;;;;;;7410590;19;19927;-72
2023/01/30 07:11:14;;;;;;;18.70;3.25;;;5.10;99.90;;;;;;7410936;19;19922;-71
2023/01/30 07:13:43;;;;;;;18.75;2.55;;;5.40;99.90;;;;;;7407618;19;19922;-72
2023/01/30 07:16:12;;;;;;;18.83;2.10;;;5.20;99.90;;;;;;7411779;19;19922;-72
2023/01/30 07:18:43;;;;;;;10.98;2.28;;;5.40;99.90;;;;;;7410799;19;19917;-72
2023/01/30 07:21:12;;;;;;;12.40;2.67;;;5.10;99.90;;;;;;7411363;19;19923;-72
2023/01/30 07:23:42;;;;;;;6.85;2.30;;;5.80;99.90;;;;;;7411465;19;19919;-72
2023/01/30 07:26:11;;;;;;;6.50;1.42;;;5.10;99.90;;;;;;7409604;19;19923;-72
2023/01/30 07:28:40;;;;;;;10.68;2.08;;;5.60;99.90;;;;;;7410947;19;19925;-72
2023/01/30 07:31:09;;;;;;;14.65;3.15;;;5.20;99.90;;;;;;7407959;19;19922;-71
2023/01/30 07:33:38;;;;;;;19.60;2.78;;;5.20;99.90;;;;;;7408610;19;20262;-71
2023/01/30 07:36:11;;;;;;;14.82;2.10;;;5.20;99.90;;;;;;7410936;19;19927;-71
2023/01/30 07:38:40;;;;;;;13.68;2.25;;;5.20;99.90;;;;;;7411519;19;19925;-72
2023/01/30 07:41:08;;;;;;;13.65;2.45;;;5.30;99.90;;;;;;7410369;19;19923;-71
2023/01/30 07:43:37;;;;;;;9.60;1.98;;;6.30;99.90;;;;;;7410241;19;19923;-71
2023/01/30 07:46:06;;;;;;;13.88;2.10;;;6.50;99.90;;;;;;7408947;19;19978;-72
2023/01/30 07:48:35;;;;;;;13.02;1.77;;;5.30;99.90;;;;;;7410383;19;19929;-71
2023/01/30 07:51:04;;;;;;;15.70;2.90;;;5.30;99.90;;;;;;7410930;19;19946;-72
2023/01/30 07:53:36;;;;;;;10.23;1.95;;;5.40;99.90;;;;;;7407728;19;19918;-72
2023/01/30 07:56:09;;;;;;;18.67;2.45;;;5.30;99.90;;;;;;7410955;19;19934;-72
2023/01/30 07:58:38;;;;;;;18.75;3.03;;;5.50;99.90;;;;;;7409949;19;19911;-71
2023/01/30 08:01:07;;;;;;;20.63;2.85;;;5.30;99.90;;;;;;7410123;19;20284;-71
2023/01/30 08:03:36;;;;;;;15.20;1.95;;;5.30;99.90;;;;;;7409530;19;20356;-72
2023/01/30 08:06:05;;;;;;;17.30;2.78;;;5.30;99.90;;;;;;7408833;19;19918;-71
2023/01/30 08:08:37;;;;;;;15.52;3.30;;;5.20;99.90;;;;;;7409970;19;20532;-71
2023/01/30 08:11:05;;;;;;;13.10;2.78;;;5.40;99.90;;;;;;7409913;19;19938;-71
2023/01/30 08:13:34;;;;;;;14.25;2.30;;;5.30;99.90;;;;;;7407815;19;20344;-72
2023/01/30 08:16:04;;;;;;;16.05;2.17;;;6.50;99.90;;;;;;7409947;19;19929;-72
2023/01/30 08:18:33;;;;;;;12.10;2.08;;;5.40;99.90;;;;;;7408077;19;19942;-72
2023/01/30 08:21:02;;;;;;;16.95;2.75;;;5.50;99.90;;;;;;7408755;19;19922;-71
2023/01/30 08:23:32;;;;;;;21.70;2.45;;;5.60;99.90;;;;;;7408294;19;19919;-72
2023/01/30 08:26:06;;;;;;;18.25;3.28;;;6.40;99.90;;;;;;7410113;19;19927;-71
2023/01/30 08:28:35;;;;;;;12.98;2.30;;;5.50;99.90;;;;;;7407611;19;20385;-71
2023/01/30 08:31:05;;;;;;;18.05;2.85;;;5.50;99.90;;;;;;7402339;19;20025;-73
2023/01/30 08:33:33;;;;;;;20.25;2.63;;;6.00;99.90;;;;;;7407178;19;19919;-72
2023/01/30 08:36:02;;;;;;;16.40;3.05;;;5.50;99.90;;;;;;7407016;19;19926;-69
2023/01/30 08:38:32;;;;;;;16.02;4.35;;;6.30;99.90;;;;;;7404253;19;19915;-71
2023/01/30 08:41:01;;;;;;;11.95;2.15;;;6.30;99.90;;;;;;7407602;19;19974;-71
2023/01/30 08:43:32;;;;;;;11.05;1.77;;;5.50;99.90;;;;;;7407165;19;19922;-71
2023/01/30 08:46:01;;;;;;;13.30;2.72;;;5.40;99.90;;;;;;7408382;19;19919;-70
2023/01/30 08:48:30;;;;;;;17.40;2.83;;;6.80;99.90;;;;;;7407391;19;19926;-71
2023/01/30 08:50:59;;;;;;;21.90;2.90;;;5.70;99.90;;;;;;7407876;19;19914;-71
2023/01/30 08:53:28;;;;;;;10.55;1.50;;;5.80;99.90;;;;;;7404819;19;19927;-70
2023/01/30 08:55:56;;;;;;;13.35;2.25;;;5.80;99.90;;;;;;7407024;19;19926;-71
2023/01/30 08:58:25;;;;;;;14.02;2.78;;;5.90;99.90;;;;;;7404125;19;19975;-71
2023/01/30 09:00:57;;;;;;;15.75;1.70;;;5.60;99.90;;;;;;7407432;19;20550;-72
2023/01/30 09:03:26;;;;;;;14.75;3.03;;;5.60;99.90;;;;;;7405963;19;19937;-70
2023/01/30 09:05:57;;;;;;;19.00;2.47;;;6.90;99.90;;;;;;7407589;19;19929;-70
2023/01/30 09:08:26;;;;;;;16.33;2.55;;;6.20;99.90;;;;;;7406122;19;20380;-71
2023/01/30 09:10:58;;;;;;;9.05;2.65;;;5.70;99.90;;;;;;7406236;19;19926;-70
2023/01/30 09:13:28;;;;;;;8.88;2.55;;;5.80;99.90;;;;;;7405901;19;19930;-72
2023/01/30 09:16:00;;;;;;;20.25;2.85;;;6.70;99.90;;;;;;7407168;19;19974;-71
2023/01/30 09:18:29;;;;;;;12.68;1.48;;;5.90;99.90;;;;;;7405089;19;19922;-72
2023/01/30 09:21:05;;;;;;;17.55;2.78;;;6.30;99.90;;;;;;7407272;19;19926;-71
2023/01/30 09:23:34;;;;;;;10.73;2.10;;;5.90;99.90;;;;;;7401114;19;19926;-72
2023/01/30 09:26:03;;;;;;;10.50;1.85;;;5.90;99.90;;;;;;7402976;19;19914;-72
2023/01/30 09:28:32;;;;;;;13.82;2.15;;;5.90;99.90;;;;;;7402960;19;19922;-72
2023/01/30 09:31:04;;;;;;;15.52;3.13;;;6.00;99.90;;;;;;7404141;19;19928;-71
2023/01/30 09:33:34;;;;;;;15.10;2.90;;;6.40;99.90;;;;;;7404893;19;19985;-72
2023/01/30 09:36:02;;;;;;;10.77;3.22;;;6.00;99.90;;;;;;7403054;19;19926;-72
2023/01/30 09:38:31;;;;;;;20.67;3.05;;;6.90;99.90;;;;;;7404548;19;20289;-71
2023/01/30 09:41:21;;;;;;;11.35;2.03;;;6.50;99.90;;;;;;7404578;19;19922;-71
2023/01/30 09:44:08;;;;;;;19.83;2.80;;;6.80;99.90;;;;;;7405282;19;19922;-71
2023/01/30 09:46:48;;;;;;;17.05;3.08;;;7.20;99.90;;;;;;7405835;19;20517;-71
2023/01/30 09:49:27;;;;;;;20.98;1.80;;;5.90;99.90;;;;;;7405266;19;20354;-72
2023/01/30 09:52:10;;;;;;;16.42;2.88;;;5.90;99.90;;;;;;7404526;19;19921;-71
2023/01/30 09:54:42;;;;;;;10.02;2.28;;;5.90;99.90;;;;;;7401929;19;21596;-71
2023/01/30 09:57:12;;;;;;;;;;;5.80;99.90;;;;;;7407384;19;19923;-70
2023/01/30 10:00:03;;;;;;;17.85;3.03;;;5.80;99.90;;;;;;7406641;19;20343;-71
2023/01/30 10:02:47;;;;;;;20.90;3.35;;;6.60;99.90;;;;;;7403581;19;19929;-71
2023/01/30 10:05:16;;;;;;;14.88;3.83;;;6.00;99.90;;;;;;7404280;19;19946;-70
2023/01/30 10:08:11;;;;;;;15.32;2.10;;;5.90;99.90;;;;;;7405324;19;19937;-71
2023/01/30 10:10:49;;;;;;;18.40;2.63;;;5.90;99.90;;;;;;7404264;19;20006;-71
2023/01/30 10:13:34;;;;;;;13.02;3.10;;;6.80;99.90;;;;;;7402274;19;20352;-71
2023/01/30 10:16:10;;;;;;;14.40;2.72;;;6.00;99.90;;;;;;7403553;19;19934;-72
2023/01/30 10:19:11;;;;;;;10.05;2.63;;;6.20;99.90;;;;;;7404918;19;19922;-71
2023/01/30 10:21:48;;;;;;;20.17;5.45;;;6.10;99.90;;;;;;7404297;19;19918;-71
2023/01/30 10:24:31;;;;;;;24.27;3.30;;;6.00;99.90;;;;;;7402063;19;19969;-71
2023/01/30 10:27:00;;;;;;;22.00;3.65;;;6.20;99.90;;;;;;7405334;19;19929;-71
2023/01/30 10:29:34;;;;;;;17.70;2.55;;;7.30;99.90;;;;;;7403378;19;19974;-71
2023/01/30 10:32:11;;;;;;;12.30;2.20;;;6.30;99.90;;;;;;7405423;19;20310;-71
2023/01/30 10:34:47;;;;;;;23.25;3.60;;;6.40;99.90;;;;;;7404467;19;20345;-72
2023/01/30 10:37:21;;;;;;;13.40;2.10;;;6.50;99.90;;;;;;7405422;19;19926;-71
2023/01/30 10:40:00;;;;;;;15.88;2.08;;;6.50;99.90;;;;;;7403035;19;20233;-72
2023/01/30 10:42:36;;;;;;;11.98;1.88;;;6.50;99.90;;;;;;7404296;19;19978;-72
2023/01/30 10:45:13;;;;;;;12.27;2.10;;;6.50;99.90;;;;;;7403348;19;19919;-72
2023/01/30 10:47:52;;;;;;;6.50;1.52;;;5.90;99.90;;;;;;7404096;19;19949;-72
2023/01/30 10:50:32;;;;;;;7.32;1.73;;;5.80;99.90;;;;;;7405196;19;19918;-73
2023/01/30 10:53:09;;;;;;;4.55;1.13;;;5.60;99.90;;;;;;7404408;19;19925;-71
2023/01/30 10:55:43;;;;;;;5.13;1.05;;;5.50;99.90;;;;;;7402067;19;19937;-71
2023/01/30 10:58:19;;;;;;;7.82;1.70;;;6.30;99.90;;;;;;7403583;19;19919;-71
2023/01/30 11:00:53;;;;;;;4.10;0.77;;;5.60;99.90;;;;;;7403682;19;19926;-72
2023/01/30 11:03:29;;;;;;;8.65;0.88;;;6.50;99.90;;;;;;7402055;19;20267;-70
2023/01/30 11:06:03;;;;;;;7.80;1.77;;;5.90;99.90;;;;;;7404033;19;20257;-70
2023/01/30 11:08:34;;;;;;;1.67;0.80;;;5.70;99.90;;;;;;7403747;19;19927;-72
2023/01/30 11:11:21;;;;;;;6.53;0.90;;;5.70;99.90;;;;;;7403063;19;19922;-70
2023/01/30 11:13:50;;;;;;;4.22;1.05;;;5.70;99.90;;;;;;7400603;19;19937;-70
2023/01/30 11:16:19;;;;;;;8.48;1.30;;;5.80;99.90;;;;;;7400032;19;19978;-70
2023/01/30 11:18:51;;;;;;;7.20;1.25;;;5.90;99.90;;;;;;7398416;19;19922;-71
2023/01/30 11:21:27;;;;;;;7.03;1.52;;;6.80;99.90;;;;;;7403397;19;19929;-71
2023/01/30 11:23:56;;;;;;;5.75;1.00;;;6.00;99.90;;;;;;7402341;19;19919;-71
2023/01/30 11:26:30;;;;;;;10.10;1.55;;;6.00;99.90;;;;;;7403986;19;19927;-71
2023/01/30 11:28:59;;;;;;;4.82;1.40;;;6.40;99.90;;;;;;7401964;19;19922;-71
2023/01/30 11:31:30;;;;;;;8.57;1.85;;;7.20;99.90;;;;;;7399954;19;19924;-71
2023/01/30 11:34:04;;;;;;;12.27;1.50;;;6.00;99.90;;;;;;7402908;19;20118;-70
2023/01/30 11:36:37;;;;;;;7.80;1.85;;;6.30;99.90;;;;;;7399844;19;19919;-71
2023/01/30 11:39:22;;;;;;;5.90;1.73;;;6.30;99.90;;;;;;7402512;19;19944;-71
2023/01/30 11:42:00;;;;;;;9.00;2.83;;;6.20;99.90;;;;;;7402604;19;20270;-71
2023/01/30 11:44:31;;;;;;;5.82;1.35;;;6.10;99.90;;;;;;7400301;19;20293;-71
2023/01/30 11:47:01;;;;;;;14.85;1.73;;;6.20;99.90;;;;;;7402088;19;20018;-71
2023/01/30 11:49:35;;;;;;;9.00;1.40;;;6.20;99.90;;;;;;7401762;19;20390;-72
2023/01/30 11:52:07;;;;;;;12.93;3.30;;;6.10;99.90;;;;;;7405623;19;19958;-71
2023/01/30 11:54:39;;;;;;;14.55;3.47;;;6.20;99.90;;;;;;7405978;19;19922;-71
2023/01/30 11:57:13;;;;;;;9.30;1.42;;;6.10;99.90;;;;;;7408185;19;20352;-71
2023/01/30 11:59:46;;;;;;;10.30;1.17;;;6.00;99.90;;;;;;7408492;19;20275;-71
2023/01/30 12:02:21;;;;;;;13.13;2.10;;;6.10;99.90;;;;;;7405605;19;19939;-72
2023/01/30 12:04:54;;;;;;;8.88;1.77;;;6.00;99.90;;;;;;7408324;19;19929;-71
2023/01/30 12:07:27;;;;;;;7.35;1.65;;;6.00;99.90;;;;;;7351798;19;19929;-72
2023/01/30 12:09:59;;;;;;;10.02;1.20;;;6.00;99.90;;;;;;7387941;19;19937;-70
2023/01/30 12:12:31;;;;;;;9.40;1.40;;;6.30;99.90;;;;;;7386017;19;19925;-71
2023/01/30 12:15:04;;;;;;;;;;;6.30;99.90;;;;;;7388985;19;19916;-72
2023/01/30 12:17:41;;;;;;;15.82;2.80;;;6.40;99.90;;;;;;7387298;19;19919;-71
2023/01/30 12:20:19;;;;;;;9.23;1.92;;;7.10;99.90;;;;;;7388364;19;19926;-71
2023/01/30 12:22:53;;;;;;;;;;;7.00;99.90;;;;;;7388585;19;19930;-71
2023/01/30 12:25:25;;;;;;;15.55;1.98;;;6.40;99.90;;;;;;7387842;19;19992;-71
2023/01/30 12:28:03;;;;;;;4.82;1.40;;;6.40;99.90;;;;;;7387070;19;19919;-72
2023/01/30 12:30:39;;;;;;;12.82;3.03;;;6.40;99.90;;;;;;7384728;19;19917;-72
2023/01/30 12:33:14;;;;;;;9.23;2.05;;;6.40;99.90;;;;;;7387250;19;19919;-72
2023/01/30 12:35:53;;;;;;;9.25;2.40;;;6.20;99.90;;;;;;7386655;19;19931;-72
2023/01/30 12:38:41;;;;;;;13.82;2.17;;;6.40;99.90;;;;;;7385149;19;20382;-71
2023/01/30 12:41:25;;;;;;;9.65;1.85;;;6.40;99.90;;;;;;7387216;19;19918;-71
2023/01/30 12:44:30;;;;;;;8.73;2.03;;;6.30;99.90;;;;;;7386212;19;19925;-72
2023/01/30 12:47:14;;;;;;;16.98;2.63;;;6.40;99.90;;;;;;7373076;19;19922;-71
2023/01/30 12:50:00;;;;;;;11.27;2.25;;;6.50;99.90;;;;;;7385728;19;20332;-72
2023/01/30 12:52:43;;;;;;;17.42;2.50;;;6.40;99.90;;;;;;7386865;19;19936;-72
2023/01/30 12:55:27;;;;;;;9.60;1.70;;;6.30;99.90;;;;;;7385890;19;19919;-71
2023/01/30 12:58:02;;;;;;;15.60;2.40;;;6.40;99.90;;;;;;7386143;19;19918;-71
2023/01/30 13:00:44;;;;;;;8.48;1.77;;;7.30;99.90;;;;;;7396063;19;19923;-70
2023/01/30 13:03:25;;;;;;;14.05;2.67;;;6.60;99.90;;;;;;7403825;19;19918;-71
2023/01/30 13:06:02;;;;;;;8.35;2.35;;;6.70;99.90;;;;;;7404946;19;20281;-71
2023/01/30 13:09:00;;;;;;;17.60;2.35;;;6.70;99.90;;;;;;7406886;19;19919;-71
2023/01/30 13:11:45;;;;;;;22.73;3.22;;;6.70;99.90;;;;;;7405947;19;19931;-70
2023/01/30 13:14:23;;;;;;;7.68;1.88;;;6.70;99.90;;;;;;7405652;19;19958;-71
2023/01/30 13:17:06;;;;;;;15.93;2.35;;;6.60;99.90;;;;;;7392739;19;19939;-72
2023/01/30 13:19:45;;;;;;;9.07;2.03;;;6.40;99.90;;;;;;7378264;19;19950;-71
2023/01/30 13:22:23;;;;;;;12.18;3.40;;;6.30;99.90;;;;;;7382276;19;19927;-70
2023/01/30 13:25:03;;;;;;;11.18;2.10;;;6.50;99.90;;;;;;7384681;19;19932;-71